sensor_id;sensor_type;location;lat;lon;timestamp;pressure;altitude;pressure_sealevel;temperature;humidity
7170;BME280;3626;42.656;23.312;2022-10-31T00:00:00;95035.00;;;13.69;58.93
7170;BME280;3626;42.656;23.312;2022-10-31T00:00:08;95042.78;;;13.69;58.57
7170;BME280;3626;42.656;23.312;2022-10-31T00:00:15;95031.59;;;13.68;58.62
7170;BME280;3626;42.656;23.312;2022-10-31T00:00:21;95036.59;;;13.70;58.64
7170;BME280;3626;42.656;23.312;2022-10-31T00:00:27;95038.22;;;13.71;58.56
7170;BME280;3626;42.656;23.312;2022-10-31T00:00:33;95040.00;;;13.70;58.48
7170;BME280;3626;42.656;23.312;2022-10-31T00:00:39;95035.78;;;13.69;58.79
7170;BME280;3626;42.656;23.312;2022-10-31T00:00:46;95034.00;;;13.70;58.61
7170;BME280;3626;42.656;23.312;2022-10-31T00:00:52;95037.59;;;13.69;58.64
7170;BME280;3626;42.656;23.312;2022-10-31T00:00:58;95042.94;;;13.67;58.61
7170;BME280;3626;42.656;23.312;2022-10-31T00:01:10;95037.75;;;13.67;58.95
7170;BME280;3626;42.656;23.312;2022-10-31T00:01:18;95036.94;;;13.67;58.88
7170;BME280;3626;42.656;23.312;2022-10-31T00:01:25;95036.94;;;13.67;59.18
7170;BME280;3626;42.656;23.312;2022-10-31T00:01:34;95044.91;;;13.65;59.12
7170;BME280;3626;42.656;23.312;2022-10-31T00:01:41;95039.72;;;13.65;58.70
7170;BME280;3626;42.656;23.312;2022-10-31T00:01:46;95041.50;;;13.65;58.84
7170;BME280;3626;42.656;23.312;2022-10-31T00:01:52;95031.75;;;13.67;59.28
7170;BME280;3626;42.656;23.312;2022-10-31T00:01:58;95036.94;;;13.67;58.87
7170;BME280;3626;42.656;23.312;2022-10-31T00:02:04;95028.19;;;13.68;59.05
7170;BME280;3626;42.656;23.312;2022-10-31T00:02:10;95034.19;;;13.68;58.79
7170;BME280;3626;42.656;23.312;2022-10-31T00:02:15;95035.00;;;13.69;58.80
7170;BME280;3626;42.656;23.312;2022-10-31T00:02:21;95041.97;;;13.68;59.23
7170;BME280;3626;42.656;23.312;2022-10-31T00:02:27;95030.78;;;13.68;58.99
7170;BME280;3626;42.656;23.312;2022-10-31T00:02:33;95027.22;;;13.69;59.28
7170;BME280;3626;42.656;23.312;2022-10-31T00:02:38;95028.19;;;13.68;59.21
7170;BME280;3626;42.656;23.312;2022-10-31T00:02:44;95030.78;;;13.68;59.07
7170;BME280;3626;42.656;23.312;2022-10-31T00:02:50;95034.19;;;13.68;59.36
7170;BME280;3626;42.656;23.312;2022-10-31T00:02:55;95031.59;;;13.68;59.32
7170;BME280;3626;42.656;23.312;2022-10-31T00:03:01;95028.19;;;13.68;59.21
7170;BME280;3626;42.656;23.312;2022-10-31T00:03:08;95034.34;;;13.67;59.26
7170;BME280;3626;42.656;23.312;2022-10-31T00:03:14;95029.16;;;13.67;58.96
7170;BME280;3626;42.656;23.312;2022-10-31T00:03:20;95040.34;;;13.67;59.23
7170;BME280;3626;42.656;23.312;2022-10-31T00:03:25;95026.56;;;13.67;59.19
7170;BME280;3626;42.656;23.312;2022-10-31T00:03:31;95025.75;;;13.66;59.14
7170;BME280;3626;42.656;23.312;2022-10-31T00:03:37;95023.16;;;13.66;59.11
7170;BME280;3626;42.656;23.312;2022-10-31T00:03:43;95028.19;;;13.68;59.18
7170;BME280;3626;42.656;23.312;2022-10-31T00:03:49;95026.03;;;13.71;59.02
7170;BME280;3626;42.656;23.312;2022-10-31T00:03:54;95031.41;;;13.70;59.32
7170;BME280;3626;42.656;23.312;2022-10-31T00:04:00;95029.81;;;13.69;59.24
7170;BME280;3626;42.656;23.312;2022-10-31T00:04:06;95029.81;;;13.69;59.23
7170;BME280;3626;42.656;23.312;2022-10-31T00:04:12;95033.19;;;13.69;59.20
7170;BME280;3626;42.656;23.312;2022-10-31T00:04:18;95025.41;;;13.69;58.87
7170;BME280;3626;42.656;23.312;2022-10-31T00:04:24;95028.81;;;13.70;59.02
7170;BME280;3626;42.656;23.312;2022-10-31T00:04:30;95031.59;;;13.68;58.96
7170;BME280;3626;42.656;23.312;2022-10-31T00:04:36;95027.22;;;13.69;59.24
7170;BME280;3626;42.656;23.312;2022-10-31T00:04:42;95026.22;;;13.70;59.28
7170;BME280;3626;42.656;23.312;2022-10-31T00:04:47;95022.03;;;13.69;59.05
7170;BME280;3626;42.656;23.312;2022-10-31T00:04:53;95027.22;;;13.69;59.35
7170;BME280;3626;42.656;23.312;2022-10-31T00:04:59;95028.00;;;13.69;59.06
7170;BME280;3626;42.656;23.312;2022-10-31T00:05:05;95026.22;;;13.70;59.21
7170;BME280;3626;42.656;23.312;2022-10-31T00:05:11;95027.84;;;13.71;59.00
7170;BME280;3626;42.656;23.312;2022-10-31T00:05:16;95025.22;;;13.71;58.92
7170;BME280;3626;42.656;23.312;2022-10-31T00:05:22;95027.69;;;13.72;59.07
7170;BME280;3626;42.656;23.312;2022-10-31T00:05:28;95025.88;;;13.73;59.13
7170;BME280;3626;42.656;23.312;2022-10-31T00:05:34;95022.13;;;13.75;58.85
7170;BME280;3626;42.656;23.312;2022-10-31T00:05:41;95029.09;;;13.75;59.16
7170;BME280;3626;42.656;23.312;2022-10-31T00:05:48;95027.16;;;13.77;59.02
7170;BME280;3626;42.656;23.312;2022-10-31T00:05:55;95025.50;;;13.76;58.83
7170;BME280;3626;42.656;23.312;2022-10-31T00:06:01;95023.91;;;13.75;58.90
7170;BME280;3626;42.656;23.312;2022-10-31T00:06:07;95021.50;;;13.73;59.14
7170;BME280;3626;42.656;23.312;2022-10-31T00:06:12;95025.88;;;13.73;59.33
7170;BME280;3626;42.656;23.312;2022-10-31T00:06:18;95019.72;;;13.74;58.95
7170;BME280;3626;42.656;23.312;2022-10-31T00:06:24;95023.09;;;13.74;59.10
7170;BME280;3626;42.656;23.312;2022-10-31T00:06:30;95025.69;;;13.74;58.96
7170;BME280;3626;42.656;23.312;2022-10-31T00:06:36;95020.50;;;13.74;58.88
7170;BME280;3626;42.656;23.312;2022-10-31T00:06:42;95029.09;;;13.75;58.99
7170;BME280;3626;42.656;23.312;2022-10-31T00:06:47;95023.09;;;13.74;58.80
7170;BME280;3626;42.656;23.312;2022-10-31T00:06:53;95023.09;;;13.74;59.10
7170;BME280;3626;42.656;23.312;2022-10-31T00:06:59;95015.50;;;13.73;59.17
7170;BME280;3626;42.656;23.312;2022-10-31T00:07:04;95024.91;;;13.74;59.28
7170;BME280;3626;42.656;23.312;2022-10-31T00:07:11;95029.44;;;13.72;59.21
7170;BME280;3626;42.656;23.312;2022-10-31T00:07:17;95021.66;;;13.72;58.96
7170;BME280;3626;42.656;23.312;2022-10-31T00:07:23;95024.25;;;13.72;59.03
7170;BME280;3626;42.656;23.312;2022-10-31T00:07:28;95025.09;;;13.72;59.27
7170;BME280;3626;42.656;23.312;2022-10-31T00:07:34;95020.69;;;13.73;58.94
7170;BME280;3626;42.656;23.312;2022-10-31T00:07:40;95022.31;;;13.74;58.91
7170;BME280;3626;42.656;23.312;2022-10-31T00:07:46;95017.91;;;13.74;58.88
7170;BME280;3626;42.656;23.312;2022-10-31T00:07:52;95023.91;;;13.75;59.20
7170;BME280;3626;42.656;23.312;2022-10-31T00:07:58;95031.53;;;13.77;58.85
7170;BME280;3626;42.656;23.312;2022-10-31T00:08:03;95018.72;;;13.75;58.88
7170;BME280;3626;42.656;23.312;2022-10-31T00:08:09;95015.13;;;13.76;58.95
7170;BME280;3626;42.656;23.312;2022-10-31T00:08:15;95021.16;;;13.77;58.83
7170;BME280;3626;42.656;23.312;2022-10-31T00:08:21;95019.53;;;13.75;58.88
7170;BME280;3626;42.656;23.312;2022-10-31T00:08:27;95025.50;;;13.76;58.81
7170;BME280;3626;42.656;23.312;2022-10-31T00:08:33;95023.09;;;13.74;58.81
7170;BME280;3626;42.656;23.312;2022-10-31T00:08:39;95028.28;;;13.74;58.74
7170;BME280;3626;42.656;23.312;2022-10-31T00:08:46;95024.09;;;13.73;58.88
7170;BME280;3626;42.656;23.312;2022-10-31T00:08:53;95018.91;;;13.73;58.89
7170;BME280;3626;42.656;23.312;2022-10-31T00:09:01;95026.03;;;13.71;58.90
7170;BME280;3626;42.656;23.312;2022-10-31T00:09:10;95022.66;;;13.71;59.11
7170;BME280;3626;42.656;23.312;2022-10-31T00:09:16;95025.09;;;13.72;58.99
7170;BME280;3626;42.656;23.312;2022-10-31T00:09:22;95026.22;;;13.70;59.22
7170;BME280;3626;42.656;23.312;2022-10-31T00:09:27;95026.22;;;13.70;59.22
7170;BME280;3626;42.656;23.312;2022-10-31T00:09:33;95027.22;;;13.69;59.10
7170;BME280;3626;42.656;23.312;2022-10-31T00:09:39;95023.00;;;13.68;59.00
7170;BME280;3626;42.656;23.312;2022-10-31T00:09:45;95021.22;;;13.68;59.03
7170;BME280;3626;42.656;23.312;2022-10-31T00:09:50;95021.22;;;13.68;59.15
7170;BME280;3626;42.656;23.312;2022-10-31T00:09:56;95017.19;;;13.66;59.38
7170;BME280;3626;42.656;23.312;2022-10-31T00:10:04;95030.50;;;13.63;59.35
7170;BME280;3626;42.656;23.312;2022-10-31T00:10:10;95030.50;;;13.63;59.23
7170;BME280;3626;42.656;23.312;2022-10-31T00:10:16;95029.69;;;13.62;59.46
7170;BME280;3626;42.656;23.312;2022-10-31T00:10:22;95025.31;;;13.63;59.58
7170;BME280;3626;42.656;23.312;2022-10-31T00:10:27;95028.88;;;13.62;59.69
7170;BME280;3626;42.656;23.312;2022-10-31T00:10:33;95029.88;;;13.61;59.69
7170;BME280;3626;42.656;23.312;2022-10-31T00:10:39;95034.06;;;13.62;59.68
7170;BME280;3626;42.656;23.312;2022-10-31T00:10:45;95022.91;;;13.61;59.47
7170;BME280;3626;42.656;23.312;2022-10-31T00:10:51;95022.91;;;13.61;59.68
7170;BME280;3626;42.656;23.312;2022-10-31T00:10:57;95022.91;;;13.61;59.42
7170;BME280;3626;42.656;23.312;2022-10-31T00:11:03;95023.69;;;13.62;59.48
7170;BME280;3626;42.656;23.312;2022-10-31T00:11:09;95028.88;;;13.62;59.71
7170;BME280;3626;42.656;23.312;2022-10-31T00:11:15;95028.88;;;13.62;59.65
7170;BME280;3626;42.656;23.312;2022-10-31T00:11:21;95028.09;;;13.61;59.60
7170;BME280;3626;42.656;23.312;2022-10-31T00:11:27;95026.28;;;13.62;59.79
7170;BME280;3626;42.656;23.312;2022-10-31T00:11:33;95021.91;;;13.62;59.56
7170;BME280;3626;42.656;23.312;2022-10-31T00:11:38;95029.53;;;13.64;59.46
7170;BME280;3626;42.656;23.312;2022-10-31T00:11:45;95026.09;;;13.63;59.61
7170;BME280;3626;42.656;23.312;2022-10-31T00:11:51;95025.16;;;13.64;59.56
7170;BME280;3626;42.656;23.312;2022-10-31T00:11:57;95030.16;;;13.66;59.46
7170;BME280;3626;42.656;23.312;2022-10-31T00:12:03;95030.16;;;13.66;59.46
7170;BME280;3626;42.656;23.312;2022-10-31T00:12:09;95028.34;;;13.66;59.72
7170;BME280;3626;42.656;23.312;2022-10-31T00:12:14;95028.53;;;13.65;59.75
7170;BME280;3626;42.656;23.312;2022-10-31T00:12:20;95021.56;;;13.65;59.52
7170;BME280;3626;42.656;23.312;2022-10-31T00:12:26;95026.75;;;13.65;59.61
7170;BME280;3626;42.656;23.312;2022-10-31T00:12:32;95028.34;;;13.66;59.26
7170;BME280;3626;42.656;23.312;2022-10-31T00:12:37;95021.38;;;13.67;59.16
7170;BME280;3626;42.656;23.312;2022-10-31T00:12:43;95023.81;;;13.68;59.25
7170;BME280;3626;42.656;23.312;2022-10-31T00:12:49;95023.00;;;13.68;59.50
7170;BME280;3626;42.656;23.312;2022-10-31T00:12:54;95019.44;;;13.69;59.15
7170;BME280;3626;42.656;23.312;2022-10-31T00:13:00;95017.81;;;13.68;59.55
7170;BME280;3626;42.656;23.312;2022-10-31T00:13:06;95022.19;;;13.67;59.44
7170;BME280;3626;42.656;23.312;2022-10-31T00:13:13;95023.81;;;13.68;59.41
7170;BME280;3626;42.656;23.312;2022-10-31T00:13:19;95022.19;;;13.67;59.36
7170;BME280;3626;42.656;23.312;2022-10-31T00:13:25;95018.78;;;13.67;59.29
7170;BME280;3626;42.656;23.312;2022-10-31T00:13:31;95025.75;;;13.66;59.26
7170;BME280;3626;42.656;23.312;2022-10-31T00:13:37;95024.97;;;13.66;59.36
7170;BME280;3626;42.656;23.312;2022-10-31T00:13:43;95014.59;;;13.66;59.54
7170;BME280;3626;42.656;23.312;2022-10-31T00:13:49;95019.78;;;13.66;59.32
7170;BME280;3626;42.656;23.312;2022-10-31T00:13:56;95019.78;;;13.66;59.32
7170;BME280;3626;42.656;23.312;2022-10-31T00:14:02;95021.38;;;13.67;59.46
7170;BME280;3626;42.656;23.312;2022-10-31T00:14:08;95020.56;;;13.66;59.15
7170;BME280;3626;42.656;23.312;2022-10-31T00:14:14;95018.78;;;13.67;59.23
7170;BME280;3626;42.656;23.312;2022-10-31T00:14:20;95019.59;;;13.67;59.64
7170;BME280;3626;42.656;23.312;2022-10-31T00:14:25;95022.38;;;13.66;59.30
7170;BME280;3626;42.656;23.312;2022-10-31T00:14:31;95016.38;;;13.65;59.20
7170;BME280;3626;42.656;23.312;2022-10-31T00:14:37;95022.38;;;13.66;59.37
7170;BME280;3626;42.656;23.312;2022-10-31T00:14:44;95018.16;;;13.65;59.63
7170;BME280;3626;42.656;23.312;2022-10-31T00:14:49;95016.38;;;13.65;59.48
7170;BME280;3626;42.656;23.312;2022-10-31T00:14:55;95020.56;;;13.66;59.36
7170;BME280;3626;42.656;23.312;2022-10-31T00:15:01;95021.38;;;13.67;59.75
7170;BME280;3626;42.656;23.312;2022-10-31T00:15:07;95018.97;;;13.65;59.73
7170;BME280;3626;42.656;23.312;2022-10-31T00:15:13;95026.09;;;13.63;59.58
7170;BME280;3626;42.656;23.312;2022-10-31T00:15:18;95014.94;;;13.63;59.56
7170;BME280;3626;42.656;23.312;2022-10-31T00:15:24;95013.31;;;13.62;59.95
7170;BME280;3626;42.656;23.312;2022-10-31T00:15:30;95024.50;;;13.62;59.75
7170;BME280;3626;42.656;23.312;2022-10-31T00:15:38;95016.91;;;13.61;59.37
7170;BME280;3626;42.656;23.312;2022-10-31T00:15:44;95017.72;;;13.61;59.80
7170;BME280;3626;42.656;23.312;2022-10-31T00:15:50;95016.91;;;13.61;59.56
7170;BME280;3626;42.656;23.312;2022-10-31T00:15:56;95024.03;;;13.59;59.88
7170;BME280;3626;42.656;23.312;2022-10-31T00:16:03;95017.06;;;13.59;59.64
7170;BME280;3626;42.656;23.312;2022-10-31T00:16:15;95021.28;;;13.60;59.81
7170;BME280;3626;42.656;23.312;2022-10-31T00:16:22;95023.09;;;13.60;59.89
7170;BME280;3626;42.656;23.312;2022-10-31T00:16:29;95019.66;;;13.59;59.67
7170;BME280;3626;42.656;23.312;2022-10-31T00:16:35;95019.50;;;13.61;59.67
7170;BME280;3626;42.656;23.312;2022-10-31T00:16:41;95016.91;;;13.61;59.78
7170;BME280;3626;42.656;23.312;2022-10-31T00:16:46;95025.50;;;13.61;59.52
7170;BME280;3626;42.656;23.312;2022-10-31T00:16:52;95022.91;;;13.61;59.68
7170;BME280;3626;42.656;23.312;2022-10-31T00:16:58;95021.09;;;13.62;59.86
7170;BME280;3626;42.656;23.312;2022-10-31T00:17:04;95018.50;;;13.62;59.76
7170;BME280;3626;42.656;23.312;2022-10-31T00:17:09;95023.69;;;13.62;59.65
7170;BME280;3626;42.656;23.312;2022-10-31T00:17:15;95015.72;;;13.63;59.58
7170;BME280;3626;42.656;23.312;2022-10-31T00:17:22;95015.72;;;13.63;59.70
7170;BME280;3626;42.656;23.312;2022-10-31T00:17:28;95018.31;;;13.63;59.64
7170;BME280;3626;42.656;23.312;2022-10-31T00:17:34;95022.56;;;13.64;59.50
7170;BME280;3626;42.656;23.312;2022-10-31T00:17:40;95022.56;;;13.64;59.88
7170;BME280;3626;42.656;23.312;2022-10-31T00:17:46;95025.94;;;13.65;59.81
7170;BME280;3626;42.656;23.312;2022-10-31T00:17:52;95013.78;;;13.65;59.30
7170;BME280;3626;42.656;23.312;2022-10-31T00:17:58;95024.97;;;13.66;59.72
7170;BME280;3626;42.656;23.312;2022-10-31T00:18:05;95017.19;;;13.66;59.61
7170;BME280;3626;42.656;23.312;2022-10-31T00:18:11;95021.56;;;13.65;59.37
7170;BME280;3626;42.656;23.312;2022-10-31T00:18:17;95019.78;;;13.66;59.53
7170;BME280;3626;42.656;23.312;2022-10-31T00:18:23;95017.19;;;13.66;59.73
7170;BME280;3626;42.656;23.312;2022-10-31T00:18:28;95019.78;;;13.66;59.54
7170;BME280;3626;42.656;23.312;2022-10-31T00:18:34;95018.97;;;13.65;59.81
7170;BME280;3626;42.656;23.312;2022-10-31T00:18:40;95022.38;;;13.66;59.55
7170;BME280;3626;42.656;23.312;2022-10-31T00:18:47;95019.78;;;13.66;59.74
7170;BME280;3626;42.656;23.312;2022-10-31T00:18:55;95017.19;;;13.66;59.73
7170;BME280;3626;42.656;23.312;2022-10-31T00:19:03;95015.56;;;13.65;59.46
7170;BME280;3626;42.656;23.312;2022-10-31T00:19:09;95015.38;;;13.66;59.53
7170;BME280;3626;42.656;23.312;2022-10-31T00:19:15;95017.19;;;13.66;59.72
7170;BME280;3626;42.656;23.312;2022-10-31T00:19:21;95016.19;;;13.67;59.41
7170;BME280;3626;42.656;23.312;2022-10-31T00:19:27;95010.03;;;13.68;59.44
7170;BME280;3626;42.656;23.312;2022-10-31T00:19:32;95016.19;;;13.67;59.43
7170;BME280;3626;42.656;23.312;2022-10-31T00:19:38;95015.22;;;13.68;59.47
7170;BME280;3626;42.656;23.312;2022-10-31T00:19:44;95011.00;;;13.67;59.74
7170;BME280;3626;42.656;23.312;2022-10-31T00:19:50;95016.19;;;13.67;59.55
7170;BME280;3626;42.656;23.312;2022-10-31T00:19:55;95012.97;;;13.65;59.76
7170;BME280;3626;42.656;23.312;2022-10-31T00:20:02;95010.38;;;13.65;59.57
7170;BME280;3626;42.656;23.312;2022-10-31T00:20:09;95012.00;;;13.66;59.69
7170;BME280;3626;42.656;23.312;2022-10-31T00:20:15;95013.59;;;13.67;59.51
7170;BME280;3626;42.656;23.312;2022-10-31T00:20:22;95012.63;;;13.68;59.53
7170;BME280;3626;42.656;23.312;2022-10-31T00:20:28;95013.59;;;13.67;59.36
7170;BME280;3626;42.656;23.312;2022-10-31T00:20:34;95017.00;;;13.67;59.65
7170;BME280;3626;42.656;23.312;2022-10-31T00:20:40;95016.19;;;13.67;59.37
7170;BME280;3626;42.656;23.312;2022-10-31T00:20:46;95011.81;;;13.67;59.87
7170;BME280;3626;42.656;23.312;2022-10-31T00:20:58;95013.59;;;13.67;59.92
7170;BME280;3626;42.656;23.312;2022-10-31T00:21:04;95017.19;;;13.66;59.32
7170;BME280;3626;42.656;23.312;2022-10-31T00:21:10;95018.78;;;13.67;59.43
7170;BME280;3626;42.656;23.312;2022-10-31T00:21:16;95017.19;;;13.66;59.53
7170;BME280;3626;42.656;23.312;2022-10-31T00:21:23;95018.78;;;13.67;59.54
7170;BME280;3626;42.656;23.312;2022-10-31T00:21:30;95016.19;;;13.67;59.42
7170;BME280;3626;42.656;23.312;2022-10-31T00:21:37;95017.81;;;13.68;59.82
7170;BME280;3626;42.656;23.312;2022-10-31T00:21:42;95020.41;;;13.68;59.44
7170;BME280;3626;42.656;23.312;2022-10-31T00:21:48;95017.00;;;13.67;59.43
7170;BME280;3626;42.656;23.312;2022-10-31T00:21:56;95019.78;;;13.66;59.43
7170;BME280;3626;42.656;23.312;2022-10-31T00:22:02;95019.78;;;13.66;59.78
7170;BME280;3626;42.656;23.312;2022-10-31T00:22:08;95021.56;;;13.65;59.50
7170;BME280;3626;42.656;23.312;2022-10-31T00:22:13;95014.78;;;13.64;59.54
7170;BME280;3626;42.656;23.312;2022-10-31T00:22:19;95015.56;;;13.65;59.54
7170;BME280;3626;42.656;23.312;2022-10-31T00:22:25;95018.97;;;13.65;59.63
7170;BME280;3626;42.656;23.312;2022-10-31T00:22:31;95025.94;;;13.65;59.65
7170;BME280;3626;42.656;23.312;2022-10-31T00:22:36;95032.13;;;13.64;59.82
7170;BME280;3626;42.656;23.312;2022-10-31T00:22:42;95030.34;;;13.64;59.62
7170;BME280;3626;42.656;23.312;2022-10-31T00:22:48;95022.56;;;13.64;59.79
7170;BME280;3626;42.656;23.312;2022-10-31T00:22:54;95026.75;;;13.65;59.81
7170;BME280;3626;42.656;23.312;2022-10-31T00:23:03;95028.53;;;13.65;60.00
7170;BME280;3626;42.656;23.312;2022-10-31T00:23:10;95024.16;;;13.65;59.94
7170;BME280;3626;42.656;23.312;2022-10-31T00:23:16;95029.34;;;13.65;59.86
7170;BME280;3626;42.656;23.312;2022-10-31T00:23:22;95028.53;;;13.65;59.93
7170;BME280;3626;42.656;23.312;2022-10-31T00:23:27;95022.56;;;13.64;59.73
7170;BME280;3626;42.656;23.312;2022-10-31T00:23:34;95025.31;;;13.63;60.13
7170;BME280;3626;42.656;23.312;2022-10-31T00:23:40;95021.75;;;13.64;60.15
7170;BME280;3626;42.656;23.312;2022-10-31T00:23:46;95026.94;;;13.64;60.02
7170;BME280;3626;42.656;23.312;2022-10-31T00:23:52;95031.13;;;13.65;59.98
7170;BME280;3626;42.656;23.312;2022-10-31T00:23:58;95026.94;;;13.64;60.11
7170;BME280;3626;42.656;23.312;2022-10-31T00:24:05;95031.28;;;13.63;60.12
7170;BME280;3626;42.656;23.312;2022-10-31T00:24:12;95034.06;;;13.62;59.97
7170;BME280;3626;42.656;23.312;2022-10-31T00:24:18;95028.09;;;13.61;59.90
7170;BME280;3626;42.656;23.312;2022-10-31T00:24:24;95033.28;;;13.61;60.13
7170;BME280;3626;42.656;23.312;2022-10-31T00:24:29;95035.06;;;13.61;59.91
7170;BME280;3626;42.656;23.312;2022-10-31T00:24:35;95022.09;;;13.61;60.04
7170;BME280;3626;42.656;23.312;2022-10-31T00:24:41;95026.47;;;13.60;59.77
7170;BME280;3626;42.656;23.312;2022-10-31T00:24:47;95031.66;;;13.60;60.18
7170;BME280;3626;42.656;23.312;2022-10-31T00:24:53;95026.47;;;13.60;59.86
7170;BME280;3626;42.656;23.312;2022-10-31T00:24:59;95028.41;;;13.58;60.11
7170;BME280;3626;42.656;23.312;2022-10-31T00:25:05;95027.63;;;13.58;59.80
7170;BME280;3626;42.656;23.312;2022-10-31T00:25:11;95032.81;;;13.58;60.03
7170;BME280;3626;42.656;23.312;2022-10-31T00:25:16;95029.22;;;13.59;60.22
7170;BME280;3626;42.656;23.312;2022-10-31T00:25:22;95030.84;;;13.60;59.91
7170;BME280;3626;42.656;23.312;2022-10-31T00:25:32;95037.66;;;13.61;59.89
7170;BME280;3626;42.656;23.312;2022-10-31T00:25:39;95029.69;;;13.62;59.94
7170;BME280;3626;42.656;23.312;2022-10-31T00:25:45;95034.06;;;13.62;59.94
7170;BME280;3626;42.656;23.312;2022-10-31T00:25:50;95031.47;;;13.62;60.12
7170;BME280;3626;42.656;23.312;2022-10-31T00:26:00;95028.88;;;13.62;59.94
7170;BME280;3626;42.656;23.312;2022-10-31T00:26:07;95025.31;;;13.63;60.35
7170;BME280;3626;42.656;23.312;2022-10-31T00:26:13;95027.28;;;13.61;59.88
7170;BME280;3626;42.656;23.312;2022-10-31T00:26:19;95030.50;;;13.63;60.07
7170;BME280;3626;42.656;23.312;2022-10-31T00:26:26;95030.69;;;13.61;59.97
7170;BME280;3626;42.656;23.312;2022-10-31T00:26:32;95022.09;;;13.61;60.12
7170;BME280;3626;42.656;23.312;2022-10-31T00:26:38;95023.09;;;13.60;59.97
7170;BME280;3626;42.656;23.312;2022-10-31T00:26:43;95027.28;;;13.61;59.86
7170;BME280;3626;42.656;23.312;2022-10-31T00:26:49;95025.81;;;13.58;60.04
7170;BME280;3626;42.656;23.312;2022-10-31T00:26:55;95027.44;;;13.59;60.13
7170;BME280;3626;42.656;23.312;2022-10-31T00:27:01;95023.41;;;13.57;60.28
7170;BME280;3626;42.656;23.312;2022-10-31T00:27:06;95031.19;;;13.57;60.16
7170;BME280;3626;42.656;23.312;2022-10-31T00:27:12;95037.19;;;13.57;60.32
7170;BME280;3626;42.656;23.312;2022-10-31T00:27:18;95027.81;;;13.56;60.10
7170;BME280;3626;42.656;23.312;2022-10-31T00:27:25;95021.81;;;13.56;59.99
7170;BME280;3626;42.656;23.312;2022-10-31T00:27:30;95028.78;;;13.55;60.50
7170;BME280;3626;42.656;23.312;2022-10-31T00:27:36;95026.00;;;13.57;60.33
7170;BME280;3626;42.656;23.312;2022-10-31T00:27:42;95025.22;;;13.56;59.90
7170;BME280;3626;42.656;23.312;2022-10-31T00:27:47;95023.41;;;13.57;60.20
7170;BME280;3626;42.656;23.312;2022-10-31T00:27:53;95021.81;;;13.56;60.21
7170;BME280;3626;42.656;23.312;2022-10-31T00:27:59;95017.44;;;13.56;60.08
7170;BME280;3626;42.656;23.312;2022-10-31T00:28:07;95026.00;;;13.57;60.18
7170;BME280;3626;42.656;23.312;2022-10-31T00:28:14;95024.41;;;13.56;60.05
7170;BME280;3626;42.656;23.312;2022-10-31T00:28:20;95033.97;;;13.55;60.03
7170;BME280;3626;42.656;23.312;2022-10-31T00:28:25;95026.19;;;13.55;60.30
7170;BME280;3626;42.656;23.312;2022-10-31T00:28:31;95022.78;;;13.55;60.11
7170;BME280;3626;42.656;23.312;2022-10-31T00:28:37;95028.94;;;13.54;60.30
7170;BME280;3626;42.656;23.312;2022-10-31T00:28:44;95022.78;;;13.55;60.41
7170;BME280;3626;42.656;23.312;2022-10-31T00:28:49;95024.56;;;13.54;60.60
7170;BME280;3626;42.656;23.312;2022-10-31T00:28:56;95018.56;;;13.54;60.67
7170;BME280;3626;42.656;23.312;2022-10-31T00:29:02;95030.91;;;13.52;60.64
7170;BME280;3626;42.656;23.312;2022-10-31T00:29:09;95026.53;;;13.52;60.51
7170;BME280;3626;42.656;23.312;2022-10-31T00:29:15;95029.13;;;13.52;60.81
7170;BME280;3626;42.656;23.312;2022-10-31T00:29:21;95025.72;;;13.52;60.69
7170;BME280;3626;42.656;23.312;2022-10-31T00:29:26;95023.16;;;13.52;60.47
7170;BME280;3626;42.656;23.312;2022-10-31T00:29:32;95026.69;;;13.50;60.38
7170;BME280;3626;42.656;23.312;2022-10-31T00:29:38;95017.16;;;13.51;60.44
7170;BME280;3626;42.656;23.312;2022-10-31T00:29:44;95030.13;;;13.51;60.66
7170;BME280;3626;42.656;23.312;2022-10-31T00:29:50;95027.34;;;13.53;60.70
7170;BME280;3626;42.656;23.312;2022-10-31T00:29:56;95020.56;;;13.52;60.65
7170;BME280;3626;42.656;23.312;2022-10-31T00:30:02;95022.34;;;13.51;60.88
7170;BME280;3626;42.656;23.312;2022-10-31T00:30:09;95023.28;;;13.50;60.95
7170;BME280;3626;42.656;23.312;2022-10-31T00:30:15;95029.13;;;13.52;60.64
7170;BME280;3626;42.656;23.312;2022-10-31T00:30:21;95031.53;;;13.54;60.46
7170;BME280;3626;42.656;23.312;2022-10-31T00:30:26;95025.56;;;13.53;60.72
7170;BME280;3626;42.656;23.312;2022-10-31T00:30:33;95021.97;;;13.54;60.50
7170;BME280;3626;42.656;23.312;2022-10-31T00:30:38;95019.38;;;13.54;60.42
7170;BME280;3626;42.656;23.312;2022-10-31T00:30:44;95025.38;;;13.55;60.58
7170;BME280;3626;42.656;23.312;2022-10-31T00:30:50;95021.00;;;13.55;60.53
7170;BME280;3626;42.656;23.312;2022-10-31T00:30:58;95024.41;;;13.56;60.50
7170;BME280;3626;42.656;23.312;2022-10-31T00:31:07;95020.03;;;13.56;60.67
7170;BME280;3626;42.656;23.312;2022-10-31T00:31:13;95027.81;;;13.56;60.84
7170;BME280;3626;42.656;23.312;2022-10-31T00:31:20;95017.44;;;13.56;60.70
7170;BME280;3626;42.656;23.312;2022-10-31T00:31:26;95019.22;;;13.56;60.76
7170;BME280;3626;42.656;23.312;2022-10-31T00:31:32;95021.63;;;13.57;60.46
7170;BME280;3626;42.656;23.312;2022-10-31T00:31:37;95021.81;;;13.56;60.48
7170;BME280;3626;42.656;23.312;2022-10-31T00:31:43;95019.22;;;13.56;60.33
7170;BME280;3626;42.656;23.312;2022-10-31T00:31:49;95014.03;;;13.56;60.84
7170;BME280;3626;42.656;23.312;2022-10-31T00:31:55;95026.81;;;13.57;60.47
7170;BME280;3626;42.656;23.312;2022-10-31T00:32:00;95021.63;;;13.57;60.77
7170;BME280;3626;42.656;23.312;2022-10-31T00:32:06;95014.03;;;13.56;60.55
7170;BME280;3626;42.656;23.312;2022-10-31T00:32:12;95020.03;;;13.56;60.56
7170;BME280;3626;42.656;23.312;2022-10-31T00:32:18;95018.06;;;13.58;60.77
7170;BME280;3626;42.656;23.312;2022-10-31T00:32:23;95012.88;;;13.58;60.70
7170;BME280;3626;42.656;23.312;2022-10-31T00:32:30;95017.06;;;13.59;60.70
7170;BME280;3626;42.656;23.312;2022-10-31T00:32:36;95016.25;;;13.59;60.42
7170;BME280;3626;42.656;23.312;2022-10-31T00:32:42;95011.25;;;13.57;60.83
7170;BME280;3626;42.656;23.312;2022-10-31T00:32:47;95010.44;;;13.57;60.69
7170;BME280;3626;42.656;23.312;2022-10-31T00:32:53;95014.66;;;13.58;60.30
7170;BME280;3626;42.656;23.312;2022-10-31T00:32:59;95014.66;;;13.58;60.58